KBYH/BYH METAR and TAF weather

Enter ICAO airport designator
Station Type Date Time Source
KBYH METAR 2019/08/19 21:50 UTC NOAA

KBYH 192150Z 10003KT 10SM FEW043 BKN250 34/24 A2998 RMK LAST


Station Type Date Time Source
KBYH Decoded METAR 2019/08/19 21:50 UTC NOAA

Eaker Air Force Base, AR, United States (KBYH) 35-58N 089-57W
Aug 19, 2019 - 05:50 PM EDT / 2019.08.19 2150 UTC
Wind: from the E (100 degrees) at 3 MPH (3 KT):0
Visibility: 10 mile(s):0
Sky conditions: mostly cloudy
Temperature: 93 F (34 C)
Heat index: 104.5 F (40.3 C):1
Dew Point: 75 F (24 C)
Relative Humidity: 56%
Pressure (altimeter): 29.98 in. Hg (1015 hPa)
ob: KBYH 192150Z 10003KT 10SM FEW043 BKN250 34/24 A2998 RMK LAST
cycle: 22

Station Type Date Time Source
KBYH TAF UTC NOAA

Error!

Example: see airport list